Time;durP1;ratioP1;P1;durP2;ratioP2;P2;SDS_P1;SDS_P2;PMS_P1;PMS_P2;Temp;Humidity;BMP_temperature;BMP_pressure;BME280_temperature;BME280_humidity;BME280_pressure;Samples;Min_cycle;Max_cycle;Signal;HPM_P1;HPM_P2
2023/02/21 02:16:02;;;;;;;2.43;1.93;;;;;;;20.60;47.56;97824.44;4944255;29;20208;-94
2023/02/21 02:18:53;;;;;;;3.17;1.70;;;;;;;20.59;47.38;97827.81;4937235;29;20224;-93
2023/02/21 02:22:06;;;;;;;2.73;1.93;;;;;;;20.59;47.74;97819.28;4944986;29;20230;-93
2023/02/21 02:24:38;;;;;;;2.73;2.03;;;;;;;20.60;47.41;97828.69;4923730;29;20201;-93
2023/02/21 02:27:17;;;;;;;2.10;1.80;;;;;;;20.58;47.79;97826.09;4948855;29;20256;-92
2023/02/21 02:30:14;;;;;;;2.70;1.97;;;;;;;20.58;47.48;97835.41;4942070;29;20209;-91
2023/02/21 02:33:10;;;;;;;2.10;1.70;;;;;;;20.57;47.42;97831.97;4933414;29;20203;-91
2023/02/21 02:35:45;;;;;;;2.27;2.00;;;;;;;19.86;47.67;97699.06;4918508;29;20211;-93
2023/02/21 02:38:19;;;;;;;3.37;2.17;;;;;;;20.03;47.69;97727.75;4949241;29;20239;-93
2023/02/21 02:41:11;;;;;;;2.67;1.93;;;;;;;20.57;47.76;97823.47;4907823;29;20320;-93
2023/02/21 02:43:49;;;;;;;2.93;2.07;;;;;;;20.22;47.58;97757.44;4949000;29;20681;-93
2023/02/21 02:46:22;;;;;;;2.00;1.80;;;;;;;19.64;47.42;97654.81;4928471;29;20208;-92
2023/02/21 02:49:22;;;;;;;2.23;1.90;;;;;;;20.45;47.50;97795.78;4934455;29;20204;-93
2023/02/21 02:51:50;;;;;;;1.90;1.63;;;;;;;18.70;47.59;97491.38;4897000;29;20228;-92
2023/02/21 02:54:17;;;;;;;3.17;1.80;;;;;;;20.04;47.61;97733.75;4935688;29;20595;-93
2023/02/21 02:56:44;;;;;;;2.20;1.60;;;;;;;19.15;47.98;97570.47;4930621;29;20205;-92
2023/02/21 02:59:21;;;;;;;2.17;1.57;;;;;;;20.57;47.84;97829.44;4926268;29;20207;-89
2023/02/21 03:01:48;;;;;;;1.80;1.60;;;;;;;20.57;47.63;97823.47;4914910;29;20228;-93
2023/02/21 03:04:30;;;;;;;1.93;1.60;;;;;;;20.57;47.64;97820.91;4943986;29;20426;-93
2023/02/21 03:07:45;;;;;;;1.87;1.77;;;;;;;20.56;47.68;97824.25;4934182;28;20221;-89
2023/02/21 03:10:36;;;;;;;1.97;1.70;;;;;;;20.56;47.93;97821.72;4949083;28;20315;-91
2023/02/21 03:13:18;;;;;;;2.60;1.83;;;;;;;20.55;48.00;97820.88;4938924;29;20213;-90
2023/02/21 03:15:54;;;;;;;3.03;1.90;;;;;;;19.72;47.89;97674.69;4945160;28;20222;-91
2023/02/21 03:18:41;;;;;;;3.47;1.83;;;;;;;20.53;48.04;97817.38;4936016;29;20204;-90
2023/02/21 03:21:13;;;;;;;2.23;1.80;;;;;;;20.08;48.01;97754.34;4933847;29;20224;-91
2023/02/21 03:23:40;;;;;;;3.33;2.00;;;;;;;19.41;48.00;97631.00;4920720;29;20200;-90
2023/02/21 03:26:07;;;;;;;2.83;2.00;;;;;;;19.60;47.75;97660.63;4921482;29;20677;-91
2023/02/21 03:28:34;;;;;;;1.83;1.70;;;;;;;20.19;48.02;97762.44;4951170;29;20563;-90
2023/02/21 03:31:01;;;;;;;2.20;1.80;;;;;;;20.33;47.92;97791.88;4921139;29;20224;-91
2023/02/21 03:33:27;;;;;;;2.10;1.80;;;;;;;20.45;47.52;97811.09;4945351;29;20200;-87
2023/02/21 03:35:54;;;;;;;2.43;1.83;;;;;;;19.79;47.98;97692.00;4952765;29;20208;-91
2023/02/21 03:38:20;;;;;;;1.70;1.60;;;;;;;19.68;47.97;97666.88;4940924;29;20219;-91
2023/02/21 03:40:47;;;;;;;2.10;1.70;;;;;;;19.35;48.08;97623.09;4933406;29;20295;-94
2023/02/21 03:43:14;;;;;;;3.30;1.90;;;;;;;19.49;47.74;97660.22;4935226;29;20293;-91
2023/02/21 03:45:41;;;;;;;2.90;1.80;;;;;;;19.10;47.91;97604.22;4921510;29;20233;-87
2023/02/21 03:48:07;;;;;;;2.00;1.80;;;;;;;18.80;47.29;97506.22;4931026;29;20671;-90
2023/02/21 03:50:34;;;;;;;2.17;1.83;;;;;;;20.20;47.94;97746.31;4932089;29;20217;-90
2023/02/21 03:53:00;;;;;;;2.00;1.80;;;;;;;19.12;47.93;97559.28;4928036;29;20204;-91
2023/02/21 03:55:27;;;;;;;1.70;1.60;;;;;;;19.62;47.81;97649.66;4912900;29;20212;-86
2023/02/21 03:57:54;;;;;;;1.73;1.63;;;;;;;19.15;47.54;97561.94;4940738;29;20201;-90
2023/02/21 04:00:20;;;;;;;2.00;1.90;;;;;;;19.70;47.78;97665.25;4950782;28;20219;-90
2023/02/21 04:02:47;;;;;;;2.07;1.57;;;;;;;20.47;47.66;97788.19;4922181;29;20212;-90
2023/02/21 04:05:13;;;;;;;2.07;1.70;;;;;;;20.43;47.99;97786.34;4946112;29;20205;-91
2023/02/21 04:07:40;;;;;;;2.07;1.80;;;;;;;19.79;47.97;97679.25;4941791;29;20273;-92
2023/02/21 04:10:07;;;;;;;1.77;1.60;;;;;;;19.27;47.90;97590.50;4926217;29;20209;-91
2023/02/21 04:12:34;;;;;;;1.70;1.60;;;;;;;20.05;47.89;97723.59;4930446;29;20200;-89
2023/02/21 04:15:00;;;;;;;1.80;1.67;;;;;;;19.84;47.87;97681.97;4944941;29;20605;-89
2023/02/21 04:17:27;;;;;;;2.20;1.77;;;;;;;19.76;47.82;97674.03;4934882;29;20204;-90
2023/02/21 04:19:53;;;;;;;2.30;1.80;;;;;;;20.33;48.32;97772.34;4926504;28;20275;-91
2023/02/21 04:22:21;;;;;;;3.77;1.87;;;;;;;19.54;47.96;97632.34;4947683;28;20236;-88
2023/02/21 04:24:47;;;;;;;2.13;1.80;;;;;;;18.62;47.91;97467.31;4919793;29;20212;-92
2023/02/21 04:27:14;;;;;;;2.83;1.63;;;;;;;18.51;48.23;97461.78;4916715;29;20220;-89
2023/02/21 04:29:41;;;;;;;1.70;1.60;;;;;;;20.18;47.93;97743.69;4948147;29;20252;-91
2023/02/21 04:32:09;;;;;;;2.00;1.80;;;;;;;19.05;48.10;97568.38;4920661;29;20231;-87
2023/02/21 04:34:39;;;;;;;2.33;1.70;;;;;;;18.82;48.00;97507.13;4923544;29;20204;-90
2023/02/21 04:37:05;;;;;;;2.00;1.80;;;;;;;19.48;48.35;97619.38;4939219;29;20232;-91
2023/02/21 04:39:32;;;;;;;1.83;1.73;;;;;;;18.59;48.28;97473.13;4930322;29;20236;-94
2023/02/21 04:41:58;;;;;;;2.10;1.90;;;;;;;19.18;48.41;97564.59;4924337;29;20324;-92
2023/02/21 04:44:25;;;;;;;1.77;1.67;;;;;;;19.03;47.99;97539.41;4932642;29;20636;-90
2023/02/21 04:46:52;;;;;;;2.00;1.77;;;;;;;18.72;48.03;97518.66;4939376;29;20212;-92
2023/02/21 04:49:18;;;;;;;3.40;1.90;;;;;;;19.72;48.20;97663.66;4924241;29;20240;-91
2023/02/21 04:51:47;;;;;;;1.67;1.40;;;;;;;19.38;48.23;97602.84;4937069;29;20274;-92
2023/02/21 04:54:14;;;;;;;2.00;1.70;;;;;;;19.28;48.02;97587.13;4918310;29;20272;-91
2023/02/21 04:56:44;;;;;;;1.80;1.70;;;;;;;20.21;48.06;97753.13;4922509;29;20691;-91
2023/02/21 04:59:10;;;;;;;2.23;1.90;;;;;;;19.93;48.15;97720.59;4925233;29;20633;-93
2023/02/21 05:01:37;;;;;;;2.30;1.97;;;;;;;18.73;47.98;97500.00;4921572;29;20260;-92
2023/02/21 05:04:04;;;;;;;1.70;1.60;;;;;;;19.51;48.09;97632.22;4910089;29;20553;-91
2023/02/21 05:06:32;;;;;;;3.00;1.90;;;;;;;20.29;48.24;97796.03;4925127;29;20208;-91
2023/02/21 05:09:00;;;;;;;2.40;1.60;;;;;;;19.30;47.83;97598.28;4928213;29;20232;-91
2023/02/21 05:11:27;;;;;;;2.03;1.90;;;;;;;17.40;47.85;97333.34;4917135;29;20228;-88
2023/02/21 05:13:53;;;;;;;5.57;1.70;;;;;;;18.29;48.61;97405.72;4955550;29;20299;-90
2023/02/21 05:16:20;;;;;;;8.00;2.10;;;;;;;19.45;49.44;97609.06;4948082;28;20230;-92
2023/02/21 05:18:47;;;;;;;3.97;2.00;;;;;;;19.23;50.42;97579.28;4937885;29;20201;-90
2023/02/21 05:21:16;;;;;;;3.17;2.13;;;;;;;20.18;50.76;97727.50;4920438;29;20319;-90
2023/02/21 05:23:54;;;;;;;5.03;2.20;;;;;;;18.45;50.92;97491.22;4926836;29;20228;-90
2023/02/21 05:26:26;;;;;;;2.83;2.03;;;;;;;19.34;50.94;97580.59;4948702;29;20291;-87
2023/02/21 05:28:53;;;;;;;11.47;2.53;;;;;;;19.78;50.90;97667.28;4935186;29;20287;-90
2023/02/21 05:31:20;;;;;;;2.67;2.40;;;;;;;19.85;50.68;97665.84;4931758;29;20225;-88
2023/02/21 05:33:47;;;;;;;6.90;2.27;;;;;;;19.11;50.34;97547.34;4936153;29;20306;-90
2023/02/21 05:36:13;;;;;;;4.60;2.40;;;;;;;20.29;50.46;97739.88;4928556;29;20216;-89
2023/02/21 05:38:50;;;;;;;2.80;2.20;;;;;;;19.38;50.12;97574.81;4944725;28;20213;-90
2023/02/21 05:41:17;;;;;;;3.43;2.27;;;;;;;19.95;50.12;97706.19;4931272;29;20236;-92
2023/02/21 05:43:45;;;;;;;3.00;2.20;;;;;;;20.29;50.22;97736.44;4962578;23;20713;-86
2023/02/21 05:46:26;;;;;;;2.77;2.10;;;;;;;20.34;49.90;97746.00;4913215;29;20213;-85
2023/02/21 05:48:53;;;;;;;2.60;2.20;;;;;;;20.60;49.97;97788.69;4923157;29;20255;-87
2023/02/21 05:51:20;;;;;;;5.50;2.80;;;;;;;20.69;49.80;97803.50;4912377;29;20224;-86
2023/02/21 05:53:46;;;;;;;9.80;3.33;;;;;;;20.05;46.19;97697.22;4929641;29;20280;-86
2023/02/21 05:56:13;;;;;;;6.53;3.63;;;;;;;20.68;44.71;97804.28;4912337;29;20297;-85
2023/02/21 05:58:39;;;;;;;6.43;3.67;;;;;;;20.40;43.59;97758.13;4926652;29;20237;-84
2023/02/21 06:01:06;;;;;;;5.93;3.60;;;;;;;20.64;42.50;97805.00;4904960;29;20252;-85
2023/02/21 06:03:33;;;;;;;5.10;3.70;;;;;;;20.38;41.92;97760.63;4923849;29;20236;-84
2023/02/21 06:06:00;;;;;;;9.70;3.93;;;;;;;20.24;41.09;97743.91;4927111;29;20209;-84
2023/02/21 06:08:26;;;;;;;6.33;3.87;;;;;;;20.57;40.50;97806.44;4920982;29;20233;-85
2023/02/21 06:10:53;;;;;;;5.27;3.87;;;;;;;20.55;40.18;97810.66;4909619;29;20299;-85
2023/02/21 06:13:19;;;;;;;5.47;3.70;;;;;;;20.21;39.90;97754.00;4927496;29;20648;-87
2023/02/21 06:15:46;;;;;;;4.60;3.90;;;;;;;20.01;39.43;97721.72;4914505;29;20407;-87
2023/02/21 06:18:13;;;;;;;8.33;4.23;;;;;;;20.50;39.83;97816.38;4924144;29;20201;-86
2023/02/21 06:20:40;;;;;;;5.47;4.10;;;;;;;19.61;40.08;97664.91;4926151;29;20674;-86
2023/02/21 06:23:06;;;;;;;5.50;3.80;;;;;;;20.46;40.46;97815.38;4910906;29;20243;-87
2023/02/21 06:25:33;;;;;;;6.73;3.90;;;;;;;19.17;41.00;97589.22;4920057;29;20205;-86
2023/02/21 06:28:00;;;;;;;7.07;3.83;;;;;;;20.06;41.43;97750.84;4905973;29;20701;-86
2023/02/21 06:30:26;;;;;;;6.70;3.90;;;;;;;20.43;41.55;97812.72;4918955;29;20241;-86
2023/02/21 06:32:53;;;;;;;5.20;3.70;;;;;;;19.34;42.51;97621.38;4920692;29;20213;-85
2023/02/21 06:35:19;;;;;;;5.60;3.50;;;;;;;20.01;42.08;97736.19;4927191;29;20224;-86
2023/02/21 06:37:46;;;;;;;6.33;3.70;;;;;;;18.79;42.01;97525.72;4899767;29;20925;-85
2023/02/21 06:40:12;;;;;;;5.80;3.50;;;;;;;19.92;42.65;97724.81;4924748;29;20209;-85
2023/02/21 06:42:39;;;;;;;4.37;3.37;;;;;;;19.64;43.04;97676.09;4922880;29;20213;-85
2023/02/21 06:45:06;;;;;;;6.03;3.57;;;;;;;20.14;43.36;97754.59;4891803;29;20248;-84
2023/02/21 06:47:32;;;;;;;3.47;3.03;;;;;;;20.49;43.67;97805.28;4907757;29;20230;-84
2023/02/21 06:49:59;;;;;;;6.93;3.17;;;;;;;20.07;43.51;97732.16;4921427;29;20288;-84
2023/02/21 06:52:26;;;;;;;6.50;3.97;;;;;;;20.52;44.09;97817.31;4910051;29;20236;-83
2023/02/21 06:54:52;;;;;;;5.93;3.33;;;;;;;19.38;44.10;97617.25;4902976;29;20718;-84
2023/02/21 06:57:19;;;;;;;3.97;3.37;;;;;;;20.52;44.20;97813.06;4910317;29;20210;-84
2023/02/21 06:59:45;;;;;;;4.27;3.00;;;;;;;19.94;44.11;97717.22;4922626;29;20214;-83
2023/02/21 07:02:17;;;;;;;3.67;2.97;;;;;;;20.54;44.60;97823.38;4929627;29;20849;-84
2023/02/21 07:04:46;;;;;;;3.00;2.70;;;;;;;19.90;44.81;97721.31;4921764;29;20226;-86
2023/02/21 07:07:13;;;;;;;3.50;3.00;;;;;;;20.40;44.91;97806.63;4891652;29;20276;-86
2023/02/21 07:09:40;;;;;;;4.67;3.13;;;;;;;20.57;45.29;97842.19;4924797;29;20308;-84
2023/02/21 07:12:07;;;;;;;3.13;2.80;;;;;;;20.57;44.93;97847.31;4923295;29;20211;-84
2023/02/21 07:14:34;;;;;;;5.03;2.90;;;;;;;20.59;45.17;97847.38;4924631;29;20272;-85
2023/02/21 07:17:00;;;;;;;4.40;3.63;;;;;;;19.63;43.25;97676.03;4922410;29;20259;-83
2023/02/21 07:19:27;;;;;;;3.93;3.53;;;;;;;19.74;43.77;97701.13;4925495;29;20252;-86
2023/02/21 07:21:54;;;;;;;4.07;3.40;;;;;;;20.58;43.99;97851.63;4916381;29;20288;-85
2023/02/21 07:24:20;;;;;;;5.03;3.30;;;;;;;20.58;44.29;97845.63;4932936;29;20220;-85
2023/02/21 07:26:47;;;;;;;4.60;3.20;;;;;;;19.28;44.39;97626.25;4919189;29;20654;-85
2023/02/21 07:29:14;;;;;;;7.73;3.57;;;;;;;19.98;44.44;97746.25;4882778;29;20225;-85
2023/02/21 07:31:40;;;;;;;4.17;3.50;;;;;;;18.41;44.65;97476.63;4900715;29;20208;-85
2023/02/21 07:34:07;;;;;;;3.87;3.10;;;;;;;20.57;44.73;97857.53;4919705;29;20229;-85
2023/02/21 07:36:36;;;;;;;4.13;3.13;;;;;;;20.27;44.85;97795.09;4924736;29;20256;-85
2023/02/21 07:39:05;;;;;;;6.03;3.40;;;;;;;20.58;45.03;97854.19;4908472;29;20219;-85
2023/02/21 07:41:32;;;;;;;5.60;3.30;;;;;;;20.58;45.45;97850.75;4919304;29;20209;-85
2023/02/21 07:43:58;;;;;;;4.03;3.10;;;;;;;20.36;44.79;97814.97;4917685;29;20263;-85
2023/02/21 07:46:26;;;;;;;3.40;3.10;;;;;;;19.49;45.24;97664.44;4909664;29;20205;-85
2023/02/21 07:48:53;;;;;;;3.80;3.40;;;;;;;20.59;45.46;97855.91;4929082;29;20256;-85
2023/02/21 07:51:19;;;;;;;4.33;3.20;;;;;;;20.58;45.49;97856.72;4919343;29;20208;-85
2023/02/21 07:53:46;;;;;;;4.67;3.23;;;;;;;20.07;45.51;97769.59;4930278;29;20417;-84
2023/02/21 07:56:12;;;;;;;4.23;2.80;;;;;;;20.60;45.51;97859.34;4909221;29;20205;-84
2023/02/21 07:58:39;;;;;;;4.07;2.97;;;;;;;20.35;45.65;97819.22;4935875;29;20209;-85
2023/02/21 08:01:06;;;;;;;3.77;2.93;;;;;;;20.60;45.51;97870.41;4935145;29;20232;-84
2023/02/21 08:03:32;;;;;;;3.87;3.43;;;;;;;19.36;45.67;97652.88;4935477;29;20224;-84
2023/02/21 08:05:59;;;;;;;5.13;3.00;;;;;;;20.41;45.68;97832.22;4923061;29;20666;-84
2023/02/21 08:08:25;;;;;;;4.10;3.40;;;;;;;19.19;45.96;97614.75;4931318;29;20245;-84
2023/02/21 08:10:52;;;;;;;3.97;3.17;;;;;;;20.63;46.58;97870.53;4927999;29;20297;-84
2023/02/21 08:13:18;;;;;;;5.37;3.00;;;;;;;20.23;46.33;97790.69;4907147;29;20224;-85
2023/02/21 08:15:45;;;;;;;3.10;2.63;;;;;;;20.65;46.67;97856.13;4910455;29;20213;-85
2023/02/21 08:18:22;;;;;;;3.37;3.03;;;;;;;19.25;46.25;97612.47;4934348;29;20232;-85
2023/02/21 08:20:51;;;;;;;4.70;2.80;;;;;;;20.65;46.14;97853.59;4933382;29;20213;-86
2023/02/21 08:23:17;;;;;;;4.23;3.07;;;;;;;20.67;46.20;97856.19;4926537;29;20213;-85
2023/02/21 08:25:44;;;;;;;3.93;3.00;;;;;;;19.24;46.13;97603.06;4922607;29;20202;-85
2023/02/21 08:28:11;;;;;;;5.87;3.20;;;;;;;20.44;46.19;97811.91;4919008;29;20229;-85
2023/02/21 08:30:38;;;;;;;4.03;2.90;;;;;;;20.49;46.33;97812.94;4905179;29;20212;-86
2023/02/21 08:33:04;;;;;;;3.40;3.10;;;;;;;19.89;45.78;97718.69;4933122;29;20208;-86
2023/02/21 08:35:31;;;;;;;3.13;2.83;;;;;;;20.66;46.39;97855.31;4906336;29;20216;-86
2023/02/21 08:38:01;;;;;;;2.90;2.63;;;;;;;19.72;46.47;97701.91;4924324;29;20201;-88
2023/02/21 08:40:29;;;;;;;3.70;3.00;;;;;;;19.72;46.48;97692.53;4936102;29;20208;-86
2023/02/21 08:42:57;;;;;;;3.80;2.77;;;;;;;19.93;46.33;97729.09;4918555;29;20205;-85
2023/02/21 08:45:24;;;;;;;3.23;2.90;;;;;;;20.34;46.59;97809.81;4906131;29;20776;-87
2023/02/21 08:47:51;;;;;;;4.27;3.20;;;;;;;18.46;46.57;97496.34;4924829;29;20213;-87
2023/02/21 08:50:19;;;;;;;3.00;2.73;;;;;;;20.69;46.59;97882.69;4892994;29;20220;-86
2023/02/21 08:52:46;;;;;;;3.40;2.87;;;;;;;20.25;46.65;97804.34;4917921;29;20210;-86
2023/02/21 08:55:12;;;;;;;4.23;2.90;;;;;;;20.69;46.62;97872.47;4914072;29;20228;-86
2023/02/21 08:57:39;;;;;;;4.20;3.20;;;;;;;19.85;46.44;97739.81;4935004;29;20297;-89
2023/02/21 09:00:09;;;;;;;4.00;2.40;;;;;;;20.36;46.77;97828.63;4903188;29;20746;-84
2023/02/21 09:02:39;;;;;;;2.53;2.27;;;;;;;20.42;46.93;97840.72;4919112;29;20208;-86
2023/02/21 09:05:26;;;;;;;4.43;2.30;;;;;;;20.71;46.84;97896.34;4924665;29;20250;-83
2023/02/21 09:07:57;;;;;;;2.13;1.77;;;;;;;20.71;46.84;97888.69;4922148;29;20209;-85
2023/02/21 09:10:27;;;;;;;3.20;2.07;;;;;;;19.51;46.89;97680.66;4914621;29;20211;-85
2023/02/21 09:12:54;;;;;;;3.23;1.73;;;;;;;20.27;47.04;97810.41;4904900;29;20208;-85
2023/02/21 09:15:21;;;;;;;1.90;1.80;;;;;;;20.74;46.80;97893.91;4929835;29;20307;-84
2023/02/21 09:17:49;;;;;;;2.30;2.00;;;;;;;20.34;46.74;97826.81;4904211;29;20298;-86
2023/02/21 09:20:18;;;;;;;3.13;1.97;;;;;;;19.34;46.95;97651.06;4917016;29;20205;-86
2023/02/21 09:22:45;;;;;;;3.60;2.10;;;;;;;20.76;46.73;97882.97;4908474;29;20225;-86
2023/02/21 09:25:14;;;;;;;3.63;2.00;;;;;;;20.70;46.80;97874.19;4933062;29;20288;-86
2023/02/21 09:27:40;;;;;;;2.90;2.00;;;;;;;19.49;47.13;97672.06;4937385;29;20248;-86
2023/02/21 09:30:09;;;;;;;3.77;2.33;;;;;;;20.48;47.13;97859.72;4922033;29;20226;-86
2023/02/21 09:32:37;;;;;;;3.40;1.90;;;;;;;20.53;47.11;97855.66;4933994;29;20216;-86
2023/02/21 09:35:04;;;;;;;5.37;1.90;;;;;;;19.64;46.84;97703.25;4905717;29;20231;-86
2023/02/21 09:37:31;;;;;;;2.83;1.93;;;;;;;18.24;47.04;97460.66;4931180;29;20229;-86
2023/02/21 09:39:58;;;;;;;2.03;1.87;;;;;;;20.74;46.85;97882.03;4922500;29;20284;-85
2023/02/21 09:42:28;;;;;;;2.97;2.00;;;;;;;20.74;46.95;97891.34;4925978;29;20237;-85
2023/02/21 09:44:55;;;;;;;2.80;1.80;;;;;;;20.75;46.86;97890.56;4923937;29;20261;-84
2023/02/21 09:47:32;;;;;;;2.73;1.83;;;;;;;20.74;46.88;97876.91;4920463;29;20588;-85
2023/02/21 09:50:04;;;;;;;3.47;2.13;;;;;;;20.66;47.09;97864.69;4910021;29;20224;-85
2023/02/21 09:52:36;;;;;;;2.50;1.83;;;;;;;19.78;47.13;97705.53;4922158;29;20202;-86
2023/02/21 09:55:10;;;;;;;3.40;2.00;;;;;;;20.45;47.05;97828.97;4906542;29;20225;-86
2023/02/21 09:57:36;;;;;;;3.40;1.97;;;;;;;20.74;47.04;97881.13;4910103;29;20694;-85
2023/02/21 10:00:21;;;;;;;4.53;2.13;;;;;;;20.52;46.96;97838.59;4904794;29;20209;-85
2023/02/21 10:02:56;;;;;;;2.03;1.87;;;;;;;20.72;47.19;97868.31;4906430;29;20276;-85
2023/02/21 10:05:43;;;;;;;3.77;2.10;;;;;;;20.71;47.17;97871.69;4929579;29;20235;-86
2023/02/21 10:08:15;;;;;;;9.27;2.20;;;;;;;20.71;46.98;97874.25;4928933;29;20205;-84
2023/02/21 10:11:00;;;;;;;2.37;1.70;;;;;;;20.70;47.07;97874.19;4923237;29;20205;-83
2023/02/21 10:13:47;;;;;;;4.70;1.90;;;;;;;20.71;47.08;97879.34;4929251;29;20227;-84
2023/02/21 10:16:26;;;;;;;2.90;1.90;;;;;;;20.70;47.14;97877.63;4925465;29;20340;-84
2023/02/21 10:19:01;;;;;;;3.17;1.93;;;;;;;20.45;47.16;97839.19;4896821;29;20205;-85
2023/02/21 10:21:30;;;;;;;3.33;1.83;;;;;;;20.60;47.13;97869.56;4917456;29;20322;-83
2023/02/21 10:24:03;;;;;;;2.67;1.90;;;;;;;20.69;47.21;97883.53;4926005;29;20253;-85
2023/02/21 10:26:34;;;;;;;3.13;1.80;;;;;;;20.46;47.08;97842.63;4922858;29;20253;-84
2023/02/21 10:29:01;;;;;;;3.63;2.07;;;;;;;20.68;47.34;97884.34;4907233;29;20249;-85
2023/02/21 10:31:38;;;;;;;2.50;1.93;;;;;;;20.68;47.23;97891.13;4911418;29;20738;-84
2023/02/21 10:34:06;;;;;;;3.00;2.10;;;;;;;20.68;47.15;97891.13;4916716;29;20252;-84
2023/02/21 10:36:33;;;;;;;2.40;1.87;;;;;;;20.39;47.31;97838.06;4917524;29;20213;-85
2023/02/21 10:39:11;;;;;;;3.70;1.63;;;;;;;20.66;47.38;97883.41;4896755;29;20687;-85
2023/02/21 10:41:38;;;;;;;1.90;1.70;;;;;;;19.87;47.37;97749.25;4925903;29;20208;-82
2023/02/21 10:44:21;;;;;;;1.90;1.63;;;;;;;20.67;47.34;97884.28;4913471;29;20229;-84
2023/02/21 10:46:57;;;;;;;2.60;1.70;;;;;;;20.67;47.12;97885.16;4901274;29;20267;-84
2023/02/21 10:49:58;;;;;;;1.90;1.80;;;;;;;20.66;47.13;97875.75;4920243;29;20247;-85
2023/02/21 10:52:24;;;;;;;2.83;1.73;;;;;;;19.93;47.20;97746.09;4903881;29;20293;-84
2023/02/21 10:55:13;;;;;;;4.10;1.90;;;;;;;20.66;47.20;97875.75;4912421;29;20662;-85
2023/02/21 10:57:57;;;;;;;3.27;1.90;;;;;;;20.65;47.17;97866.34;4912995;29;20212;-84
2023/02/21 11:00:24;;;;;;;2.00;1.80;;;;;;;20.67;47.09;97880.06;4914410;29;20224;-86
2023/02/21 11:03:01;;;;;;;2.23;1.90;;;;;;;20.27;47.23;97804.41;4929347;29;20311;-85
2023/02/21 11:05:27;;;;;;;2.50;1.80;;;;;;;20.67;47.50;97869.84;4915816;29;20227;-84
2023/02/21 11:08:14;;;;;;;2.10;1.70;;;;;;;20.66;47.51;97857.88;4894108;29;20213;-82
2023/02/21 11:10:42;;;;;;;2.30;1.90;;;;;;;20.14;47.22;97769.03;4916336;29;20222;-84
2023/02/21 11:13:21;;;;;;;2.47;2.00;;;;;;;19.46;47.32;97646.47;4899495;29;20201;-84
2023/02/21 11:15:48;;;;;;;2.07;1.90;;;;;;;19.81;47.48;97695.44;4895599;29;20209;-84
2023/02/21 11:18:24;;;;;;;2.43;1.70;;;;;;;20.66;47.51;97834.88;4895999;29;20228;-85
2023/02/21 11:20:51;;;;;;;2.00;1.80;;;;;;;20.66;47.22;97837.44;4899743;29;20209;-85
2023/02/21 11:23:20;;;;;;;1.97;1.77;;;;;;;20.68;47.38;97827.28;4917622;29;20209;-84
2023/02/21 11:25:47;;;;;;;1.97;1.53;;;;;;;19.81;47.33;97680.16;4915973;29;20241;-85
2023/02/21 11:28:13;;;;;;;1.50;1.40;;;;;;;20.67;47.28;97823.88;4898373;29;20205;-85
2023/02/21 11:30:46;;;;;;;1.93;1.70;;;;;;;19.81;47.29;97672.50;4915580;29;20264;-84
2023/02/21 11:33:12;;;;;;;2.70;1.60;;;;;;;20.68;47.26;97815.38;4902175;29;20202;-84
2023/02/21 11:35:43;;;;;;;2.70;1.70;;;;;;;20.69;47.28;97813.72;4897767;29;20217;-84
2023/02/21 11:38:36;;;;;;;2.37;1.70;;;;;;;20.47;47.43;97760.09;4926525;29;20240;-84
2023/02/21 11:41:14;;;;;;;2.13;1.47;;;;;;;20.64;47.28;97797.34;4924667;29;20198;-85
2023/02/21 11:43:46;;;;;;;3.13;1.80;;;;;;;20.52;47.40;97771.34;4922027;29;20297;-82
2023/02/21 11:46:39;;;;;;;1.77;1.60;;;;;;;20.67;47.33;97797.47;4911331;29;20205;-84
2023/02/21 11:49:34;;;;;;;1.77;1.67;;;;;;;20.67;47.41;97793.22;4918571;29;20245;-85
2023/02/21 11:52:29;;;;;;;2.07;1.87;;;;;;;20.66;47.33;97794.03;4918406;29;20305;-85
2023/02/21 11:54:56;;;;;;;1.87;1.60;;;;;;;19.76;47.35;97627.25;4934783;28;20239;-85
2023/02/21 11:57:31;;;;;;;1.70;1.60;;;;;;;20.66;47.25;97782.97;4895134;29;20206;-85
2023/02/21 12:00:11;;;;;;;2.63;1.80;;;;;;;20.65;47.46;97781.19;4918044;29;20205;-85
2023/02/21 12:02:55;;;;;;;1.60;1.40;;;;;;;20.65;47.46;97776.09;4917450;29;20292;-85
2023/02/21 12:05:53;;;;;;;1.87;1.77;;;;;;;20.65;47.46;97776.97;4919136;29;20228;-85
2023/02/21 12:08:19;;;;;;;1.60;1.50;;;;;;;20.63;47.45;97765.81;4918672;29;20205;-86
2023/02/21 12:10:51;;;;;;;2.17;1.90;;;;;;;20.66;47.52;97767.63;4918033;29;20321;-85
2023/02/21 12:13:28;;;;;;;1.70;1.50;;;;;;;19.94;47.35;97648.34;4915551;29;20289;-85
2023/02/21 12:15:57;;;;;;;2.40;1.60;;;;;;;20.64;46.72;97756.47;4915983;29;20221;-86
2023/02/21 12:18:47;;;;;;;1.87;1.67;;;;;;;19.56;46.59;97566.97;4908617;29;20659;-86
2023/02/21 12:21:25;;;;;;;2.03;1.60;;;;;;;20.64;46.82;97754.81;4921621;29;20212;-85
2023/02/21 12:23:58;;;;;;;2.77;1.80;;;;;;;20.64;47.10;97753.94;4917544;29;20264;-86
2023/02/21 12:26:50;;;;;;;1.70;1.60;;;;;;;20.64;47.23;97749.72;4915177;29;20702;-85
2023/02/21 12:29:42;;;;;;;3.37;1.70;;;;;;;20.64;47.35;97746.28;4932753;29;20228;-85
2023/02/21 12:32:30;;;;;;;1.93;1.67;;;;;;;20.64;47.14;97733.50;4916654;29;20241;-86
2023/02/21 12:35:18;;;;;;;2.23;1.57;;;;;;;20.63;47.36;97732.63;4918485;29;20224;-85
2023/02/21 12:37:48;;;;;;;2.47;1.60;;;;;;;20.64;47.21;97728.41;4915692;29;20205;-85
2023/02/21 12:40:26;;;;;;;1.83;1.60;;;;;;;19.67;47.29;97552.97;4917689;29;20206;-85
2023/02/21 12:43:15;;;;;;;3.23;1.80;;;;;;;19.78;47.51;97569.53;4902222;29;20209;-85
2023/02/21 12:46:17;;;;;;;1.93;1.80;;;;;;;20.65;47.18;97715.69;4909260;29;20653;-85
2023/02/21 12:48:48;;;;;;;1.73;1.63;;;;;;;20.11;47.19;97616.66;4927535;29;20209;-85
2023/02/21 12:51:17;;;;;;;1.83;1.50;;;;;;;20.42;47.28;97654.38;4900094;29;20252;-84
2023/02/21 12:53:54;;;;;;;2.77;1.70;;;;;;;20.66;46.99;97685.91;4923624;29;20229;-86
2023/02/21 12:56:27;;;;;;;1.50;1.40;;;;;;;20.05;47.22;97580.75;4931543;29;20209;-85
2023/02/21 12:58:58;;;;;;;1.93;1.60;;;;;;;19.84;47.34;97537.44;4907043;29;20213;-85
2023/02/21 13:01:33;;;;;;;2.63;1.50;;;;;;;20.68;47.41;97685.16;4923273;29;20228;-85
2023/02/21 13:04:18;;;;;;;3.33;1.80;;;;;;;20.68;47.34;97681.72;4928257;29;20228;-85
2023/02/21 13:06:51;;;;;;;3.10;1.50;;;;;;;19.58;47.22;97483.78;4922229;29;20213;-82
2023/02/21 13:09:26;;;;;;;1.83;1.40;;;;;;;20.67;47.35;97665.53;4922060;29;20235;-85
2023/02/21 13:12:07;;;;;;;2.10;1.50;;;;;;;20.67;47.28;97660.44;4924822;29;20237;-85
2023/02/21 13:14:41;;;;;;;2.27;1.60;;;;;;;20.01;47.17;97547.41;4924350;29;20225;-85
2023/02/21 13:17:14;;;;;;;1.57;1.47;;;;;;;19.25;47.43;97403.53;4892093;29;20246;-85
2023/02/21 13:19:58;;;;;;;7.83;1.90;;;;;;;20.67;47.21;97647.66;4916397;29;20204;-85
2023/02/21 13:23:02;;;;;;;2.33;1.83;;;;;;;20.68;47.49;97635.75;4922549;29;20217;-85
2023/02/21 13:25:49;;;;;;;2.17;1.97;;;;;;;20.67;47.44;97644.22;4929119;29;20278;-86
2023/02/21 13:28:22;;;;;;;2.00;1.57;;;;;;;20.46;47.60;97595.81;4908345;29;20577;-82
2023/02/21 13:31:00;;;;;;;1.40;1.30;;;;;;;19.99;47.50;97507.38;4919558;29;20664;-85
2023/02/21 13:33:42;;;;;;;1.70;1.60;;;;;;;20.41;47.31;97578.63;4901218;29;20225;-84
2023/02/21 13:36:40;;;;;;;1.70;1.60;;;;;;;20.69;47.44;97625.56;4888988;29;20209;-84
2023/02/21 13:39:07;;;;;;;1.93;1.70;;;;;;;20.70;47.30;97614.56;4923937;29;20214;-85
2023/02/21 13:41:39;;;;;;;2.20;1.50;;;;;;;19.94;47.23;97480.88;4921620;29;20272;-86
2023/02/21 13:44:11;;;;;;;1.93;1.70;;;;;;;20.19;47.29;97517.47;4891291;29;20244;-85
2023/02/21 13:46:38;;;;;;;1.50;1.40;;;;;;;20.73;47.48;97606.13;4892675;29;20200;-85
2023/02/21 13:49:38;;;;;;;3.03;1.80;;;;;;;20.72;47.42;97599.28;4923510;29;20236;-85
2023/02/21 13:52:23;;;;;;;2.73;1.33;;;;;;;20.74;47.31;97597.63;4920192;29;20217;-85
2023/02/21 13:55:14;;;;;;;1.67;1.50;;;;;;;20.72;47.31;97592.47;4929610;29;20243;-85
2023/02/21 13:57:44;;;;;;;1.97;1.77;;;;;;;20.55;47.37;97557.88;4917850;29;20261;-85
2023/02/21 14:00:20;;;;;;;3.67;1.73;;;;;;;20.72;47.29;97583.97;4923039;29;20759;-84
2023/02/21 14:02:59;;;;;;;1.70;1.60;;;;;;;20.72;47.48;97581.41;4921360;29;20541;-84
2023/02/21 14:05:46;;;;;;;4.27;1.63;;;;;;;20.72;47.40;97579.72;4902768;29;20311;-85
2023/02/21 14:08:28;;;;;;;1.73;1.30;;;;;;;20.70;47.32;97571.16;4931706;29;20228;-87
2023/02/21 14:10:57;;;;;;;2.07;1.47;;;;;;;19.79;47.29;97416.59;4925120;29;20315;-87
2023/02/21 14:13:35;;;;;;;3.10;1.83;;;;;;;20.33;47.38;97512.00;4907543;29;20202;-86